KFSW Airport (Fort Madison Muni) Information

FAA: FSW - ICAO: KFSW

KFSW Airport Location

State Iowa
County Lee
City Fort Madison
KFSW Airport is 2 miles north of Fort Madison, IA.
Latitude 40-39-32.8000N
Longitude 091-19-39.9000W
Elevation 721ft

KFSW Airport METARs

METAR KFSW 251655Z AUTO 34011G16KT 10SM 09/07 A3002 RMK AO2 P0002
Altimeter 30.02"
Temperature 9.0°C (48.2°F)
Wind 340° at 11KT with gusts to 16KT
Clouds at 0ft
Visibility 10.0mi
Time observed: 2021-10-25T16:55:00Z

KFSW Airport Details

Status Operational
Activation March 1959
Ownership Public
Usage Public
Chart CHICAGO
ATC on-site No
Beacon schedule sunset-sunrise
Beacon color clear green

KFSW Airport Contacts

Owner CITY OF FORT MADISON
Owner address AVE E & 8 TH, FORT MADISON, IA 52627
Owner phone 319-372-7700
Manager GEORGE TEGELER
Manager address 21193 GRAPE RD, ELKADER, IA 52043-8077
Manager phone (563) 880-2915

KFSW Airport (Fort Madison Muni) Radio Frequencies

KFSW (Airport) Radio Frequencies

UNICOM 122.8
Common traffic advisory frequency (CTAF) 122.8